Time;durP1;ratioP1;P1;durP2;ratioP2;P2;SDS_P1;SDS_P2;PMS_P1;PMS_P2;Temp;Humidity;BMP_temperature;BMP_pressure;BME280_temperature;BME280_humidity;BME280_pressure;Samples;Min_cycle;Max_cycle;Signal;HPM_P1;HPM_P2
2023/05/28 00:02:07;;;;;;;;;;;18.50;67.50;;;;;;5016998;28;1402;-70
2023/05/28 00:04:33;;;;;;;;;;;18.50;67.50;;;;;;5038743;28;789;-70
2023/05/28 00:06:58;;;;;;;;;;;18.50;67.50;;;;;;5037302;28;934;-70
2023/05/28 00:09:24;;;;;;;;;;;18.50;67.50;;;;;;5036538;28;1195;-70
2023/05/28 00:11:49;;;;;;;;;;;18.50;67.50;;;;;;5020984;28;1942;-70
2023/05/28 00:14:15;;;;;;;;;;;18.50;67.50;;;;;;5039143;28;788;-70
2023/05/28 00:16:43;;;;;;;;;;;18.50;67.50;;;;;;5036482;28;860;-70
2023/05/28 00:19:09;;;;;;;;;;;18.50;67.50;;;;;;5040830;28;888;-70
2023/05/28 00:21:36;;;;;;;;;;;18.50;67.50;;;;;;5019355;28;1260;-71
2023/05/28 00:24:01;;;;;;;;;;;18.50;67.50;;;;;;5025953;28;868;-71
2023/05/28 00:26:27;;;;;;;;;;;18.50;67.50;;;;;;5042172;28;993;-70
2023/05/28 00:28:53;;;;;;;;;;;18.50;67.50;;;;;;5036079;28;1010;-70
2023/05/28 00:31:18;;;;;;;;;;;18.50;67.50;;;;;;5038270;28;1973;-70
2023/05/28 00:33:43;;;;;;;;;;;18.50;67.50;;;;;;5020711;28;1224;-70
2023/05/28 00:36:10;;;;;;;;;;;18.50;67.50;;;;;;5035299;28;1594;-70
2023/05/28 00:38:36;;;;;;;;;;;18.50;67.60;;;;;;5039036;28;805;-70
2023/05/28 00:41:01;;;;;;;;;;;18.50;67.50;;;;;;5037637;28;879;-70
2023/05/28 00:43:27;;;;;;;;;;;18.50;68.30;;;;;;5036526;28;1216;-70
2023/05/28 00:45:52;;;;;;;;;;;18.50;67.50;;;;;;5036025;28;948;-69
2023/05/28 00:48:18;;;;;;;;;;;18.50;67.50;;;;;;5019294;28;820;-70
2023/05/28 00:50:43;;;;;;;;;;;18.50;67.50;;;;;;5037974;28;1965;-70
2023/05/28 00:53:09;;;;;;;;;;;18.50;67.50;;;;;;5036475;28;1245;-71
2023/05/28 00:55:34;;;;;;;;;;;18.50;67.50;;;;;;5020683;28;957;-69
2023/05/28 00:58:05;;;;;;;;;;;18.50;67.50;;;;;;5017917;28;828;-70
2023/05/28 01:00:34;;;;;;;;;;;18.50;67.50;;;;;;5036482;28;887;-70
2023/05/28 01:03:00;;;;;;;;;;;18.50;67.50;;;;;;5034837;28;1259;-70
2023/05/28 01:05:25;;;;;;;;;;;18.50;67.50;;;;;;5043062;28;831;-71
2023/05/28 01:07:51;;;;;;;;;;;18.50;67.50;;;;;;5018223;28;832;-71
2023/05/28 01:10:16;;;;;;;;;;;18.50;67.50;;;;;;5039397;28;1914;-70
2023/05/28 01:12:42;;;;;;;;;;;18.50;67.50;;;;;;5041177;28;1364;-69
2023/05/28 01:15:08;;;;;;;;;;;18.50;67.60;;;;;;5038663;28;891;-69
2023/05/28 01:17:33;;;;;;;;;;;18.50;67.50;;;;;;5037810;28;958;-67
2023/05/28 01:20:10;;;;;;;;;;;18.50;67.60;;;;;;5037528;28;860;-71
2023/05/28 01:22:40;;;;;;;;;;;18.50;67.60;;;;;;5037013;28;1263;-69
2023/05/28 01:25:09;;;;;;;;;;;18.50;67.60;;;;;;5020066;28;858;-69
2023/05/28 01:27:37;;;;;;;;;;;18.50;67.60;;;;;;5020265;28;1351;-69
2023/05/28 01:30:05;;;;;;;;;;;18.40;67.50;;;;;;5014907;28;1910;-70
2023/05/28 01:32:30;;;;;;;;;;;18.50;67.60;;;;;;5031594;28;1613;-69
2023/05/28 01:34:56;;;;;;;;;;;18.50;67.60;;;;;;5034007;28;1407;-72
2023/05/28 01:37:22;;;;;;;;;;;18.50;67.60;;;;;;5038419;28;1360;-70
2023/05/28 01:39:47;;;;;;;;;;;18.50;67.60;;;;;;5037201;28;1727;-71
2023/05/28 01:42:13;;;;;;;;;;;18.50;67.60;;;;;;5019010;28;1377;-69
2023/05/28 01:44:38;;;;;;;;;;;18.50;67.60;;;;;;5021490;28;1362;-68
2023/05/28 01:47:04;;;;;;;;;;;18.50;67.60;;;;;;5033515;28;1213;-69
2023/05/28 01:49:29;;;;;;;;;;;18.50;67.60;;;;;;5018446;28;918;-69
2023/05/28 01:51:55;;;;;;;;;;;18.50;67.60;;;;;;5020116;28;1902;-69
2023/05/28 01:54:21;;;;;;;;;;;18.50;67.60;;;;;;5039622;28;907;-69
2023/05/28 01:56:47;;;;;;;;;;;18.50;67.60;;;;;;5038945;28;1228;-70
2023/05/28 01:59:12;;;;;;;;;;;18.40;67.50;;;;;;5036508;28;855;-68
2023/05/28 02:01:38;;;;;;;;;;;18.40;67.50;;;;;;5034794;28;1530;-69
2023/05/28 02:04:03;;;;;;;;;;;18.50;67.60;;;;;;5038012;28;941;-69
2023/05/28 02:06:32;;;;;;;;;;;18.50;67.70;;;;;;5039562;28;791;-69
2023/05/28 02:08:58;;;;;;;;;;;18.50;67.60;;;;;;5017137;28;824;-69
2023/05/28 02:11:23;;;;;;;;;;;18.50;67.60;;;;;;5041119;28;1894;-69
2023/05/28 02:13:49;;;;;;;;;;;18.50;67.60;;;;;;5041214;28;1295;-69
2023/05/28 02:16:17;;;;;;;;;;;18.40;67.60;;;;;;5019458;28;841;-69
2023/05/28 02:18:43;;;;;;;;;;;18.50;67.60;;;;;;5032630;28;1071;-69
2023/05/28 02:21:09;;;;;;;;;;;18.50;67.60;;;;;;5040284;28;812;-69
2023/05/28 02:23:35;;;;;;;;;;;18.50;67.60;;;;;;5040821;28;1298;-69
2023/05/28 02:26:00;;;;;;;;;;;18.50;67.70;;;;;;5041533;28;1226;-68
2023/05/28 02:28:26;;;;;;;;;;;18.50;67.60;;;;;;5040220;28;874;-69
2023/05/28 02:30:51;;;;;;;;;;;18.50;67.60;;;;;;5042072;28;1890;-69
2023/05/28 02:33:17;;;;;;;;;;;18.50;67.60;;;;;;5038461;28;1465;-69
2023/05/28 02:35:42;;;;;;;;;;;18.50;67.60;;;;;;5041486;28;871;-70
2023/05/28 02:38:08;;;;;;;;;;;18.50;67.70;;;;;;5040240;28;903;-69
2023/05/28 02:40:33;;;;;;;;;;;18.50;67.60;;;;;;5038236;28;1001;-69
2023/05/28 02:42:59;;;;;;;;;;;18.50;67.60;;;;;;5043524;28;1255;-69
2023/05/28 02:45:24;;;;;;;;;;;18.50;67.60;;;;;;5041883;28;1193;-69
2023/05/28 02:47:50;;;;;;;;;;;18.50;67.60;;;;;;5040390;28;863;-70
2023/05/28 02:50:15;;;;;;;;;;;18.50;67.70;;;;;;5037506;28;1898;-70
2023/05/28 02:52:40;;;;;;;;;;;18.50;67.60;;;;;;5037087;28;1279;-70
2023/05/28 02:55:07;;;;;;;;;;;18.50;67.70;;;;;;5038778;28;884;-70
2023/05/28 02:57:33;;;;;;;;;;;18.50;67.70;;;;;;5043290;28;907;-69
2023/05/28 02:59:58;;;;;;;;;;;18.50;67.70;;;;;;5041287;28;911;-70
2023/05/28 03:02:23;;;;;;;;;;;18.50;67.70;;;;;;5040269;28;1372;-69
2023/05/28 03:04:49;;;;;;;;;;;18.50;67.70;;;;;;5038753;28;866;-71
2023/05/28 03:07:14;;;;;;;;;;;18.50;68.40;;;;;;5040755;28;947;-71
2023/05/28 03:09:40;;;;;;;;;;;18.50;67.70;;;;;;5039493;28;892;-71
2023/05/28 03:12:06;;;;;;;;;;;18.50;67.70;;;;;;5023466;28;1898;-71
2023/05/28 03:14:31;;;;;;;;;;;18.50;68.50;;;;;;5038963;28;935;-71
2023/05/28 03:16:57;;;;;;;;;;;18.50;67.70;;;;;;5038363;28;879;-71
2023/05/28 03:19:22;;;;;;;;;;;18.50;67.70;;;;;;5041921;28;804;-70
2023/05/28 03:21:48;;;;;;;;;;;18.50;67.70;;;;;;5039125;28;1327;-68
2023/05/28 03:24:14;;;;;;;;;;;18.40;67.60;;;;;;5041495;28;863;-69
2023/05/28 03:26:40;;;;;;;;;;;18.50;67.70;;;;;;5044046;28;954;-69
2023/05/28 03:29:05;;;;;;;;;;;18.40;67.60;;;;;;5039040;28;926;-69
2023/05/28 03:31:33;;;;;;;;;;;18.50;67.70;;;;;;5034736;28;1964;-67
2023/05/28 03:33:58;;;;;;;;;;;18.50;67.70;;;;;;5021093;28;1373;-68
2023/05/28 03:36:27;;;;;;;;;;;18.50;67.70;;;;;;5038729;28;889;-69
2023/05/28 03:38:52;;;;;;;;;;;18.40;67.60;;;;;;5019890;28;1336;-69
2023/05/28 03:41:17;;;;;;;;;;;18.50;67.70;;;;;;5038904;28;915;-69
2023/05/28 03:43:43;;;;;;;;;;;18.50;67.70;;;;;;5040478;28;1339;-70
2023/05/28 03:46:08;;;;;;;;;;;18.40;67.60;;;;;;5032909;28;1199;-70
2023/05/28 03:48:34;;;;;;;;;;;18.50;67.70;;;;;;5040881;28;860;-70
2023/05/28 03:51:00;;;;;;;;;;;18.50;67.70;;;;;;5038616;28;1964;-70
2023/05/28 03:53:26;;;;;;;;;;;18.50;67.70;;;;;;5036292;28;1260;-70
2023/05/28 03:55:51;;;;;;;;;;;18.50;67.70;;;;;;5041621;28;908;-70
2023/05/28 03:58:17;;;;;;;;;;;18.50;67.70;;;;;;5024364;28;1011;-69
2023/05/28 04:00:42;;;;;;;;;;;18.40;67.60;;;;;;5040288;28;863;-70
2023/05/28 04:03:08;;;;;;;;;;;18.50;67.70;;;;;;5035554;28;1248;-70
2023/05/28 04:05:33;;;;;;;;;;;18.40;67.60;;;;;;5039509;28;864;-70
2023/05/28 04:07:59;;;;;;;;;;;18.50;67.70;;;;;;5039596;28;863;-70
2023/05/28 04:10:25;;;;;;;;;;;18.40;67.60;;;;;;5018370;28;1969;-70
2023/05/28 04:12:51;;;;;;;;;;;18.40;67.70;;;;;;5038957;28;1397;-70
2023/05/28 04:15:16;;;;;;;;;;;18.40;67.70;;;;;;5039494;28;1542;-70
2023/05/28 04:17:42;;;;;;;;;;;18.50;67.70;;;;;;5040466;28;943;-69
2023/05/28 04:20:09;;;;;;;;;;;18.40;67.60;;;;;;5037477;28;837;-69
2023/05/28 04:22:34;;;;;;;;;;;18.40;67.70;;;;;;5035514;28;1382;-70
2023/05/28 04:25:01;;;;;;;;;;;18.40;67.60;;;;;;5018603;28;1057;-70
2023/05/28 04:27:26;;;;;;;;;;;18.40;67.60;;;;;;5038792;28;1300;-71
2023/05/28 04:29:52;;;;;;;;;;;18.50;67.70;;;;;;5039697;28;1914;-71
2023/05/28 04:32:17;;;;;;;;;;;18.40;67.60;;;;;;5035866;28;1295;-70
2023/05/28 04:34:43;;;;;;;;;;;18.50;67.70;;;;;;5020190;28;1474;-70
2023/05/28 04:37:08;;;;;;;;;;;18.40;67.70;;;;;;5040006;28;871;-69
2023/05/28 04:39:34;;;;;;;;;;;18.40;67.60;;;;;;5039052;28;910;-69
2023/05/28 04:42:03;;;;;;;;;;;18.40;67.60;;;;;;5022090;28;1299;-70
2023/05/28 04:44:32;;;;;;;;;;;18.50;67.70;;;;;;5038715;28;852;-70
2023/05/28 04:46:58;;;;;;;;;;;18.50;67.70;;;;;;5039170;28;879;-67
2023/05/28 04:49:24;;;;;;;;;;;18.40;67.60;;;;;;5042872;28;891;-68
2023/05/28 04:51:50;;;;;;;;;;;18.40;67.70;;;;;;5033816;28;1894;-67
2023/05/28 04:54:15;;;;;;;;;;;18.40;67.60;;;;;;5036760;28;863;-68
2023/05/28 04:56:41;;;;;;;;;;;18.40;67.60;;;;;;5040967;28;824;-70
2023/05/28 04:59:09;;;;;;;;;;;18.50;67.70;;;;;;5035852;28;939;-70
2023/05/28 05:01:39;;;;;;;;;;;18.50;67.70;;;;;;5037020;28;1343;-71
2023/05/28 05:04:05;;;;;;;;;;;18.40;67.70;;;;;;5021771;28;844;-70
2023/05/28 05:06:31;;;;;;;;;;;18.40;67.60;;;;;;5034407;28;885;-70
2023/05/28 05:08:56;;;;;;;;;;;18.40;67.70;;;;;;5037163;28;777;-69
2023/05/28 05:11:22;;;;;;;;;;;18.40;67.70;;;;;;5015125;28;1890;-69
2023/05/28 05:13:47;;;;;;;;;;;18.40;67.60;;;;;;5039092;28;1281;-69
2023/05/28 05:16:13;;;;;;;;;;;18.40;67.60;;;;;;5041814;28;829;-69
2023/05/28 05:18:39;;;;;;;;;;;18.40;67.70;;;;;;5037640;28;926;-69
2023/05/28 05:21:04;;;;;;;;;;;18.40;67.60;;;;;;5034728;28;870;-69
2023/05/28 05:23:30;;;;;;;;;;;18.40;67.60;;;;;;5033219;28;1257;-70
2023/05/28 05:25:55;;;;;;;;;;;18.40;67.60;;;;;;5036936;28;1418;-69
2023/05/28 05:28:21;;;;;;;;;;;18.50;67.70;;;;;;5039146;28;783;-69
2023/05/28 05:30:47;;;;;;;;;;;18.50;67.70;;;;;;5034458;28;1930;-69
2023/05/28 05:33:12;;;;;;;;;;;18.50;67.70;;;;;;5033716;28;1517;-71
2023/05/28 05:35:38;;;;;;;;;;;18.40;67.60;;;;;;5036220;28;890;-71
2023/05/28 05:38:03;;;;;;;;;;;18.40;67.60;;;;;;5036543;28;888;-71
2023/05/28 05:40:29;;;;;;;;;;;18.40;67.60;;;;;;5036983;28;945;-71
2023/05/28 05:42:54;;;;;;;;;;;18.40;67.60;;;;;;5035750;28;1276;-71
2023/05/28 05:45:19;;;;;;;;;;;18.40;67.60;;;;;;5033893;28;876;-68
2023/05/28 05:47:45;;;;;;;;;;;18.50;67.70;;;;;;5038065;28;879;-70
2023/05/28 05:50:11;;;;;;;;;;;18.50;67.70;;;;;;5039288;28;1898;-70
2023/05/28 05:52:36;;;;;;;;;;;18.40;67.60;;;;;;5040344;28;1275;-70
2023/05/28 05:55:02;;;;;;;;;;;18.40;67.60;;;;;;5036755;28;825;-70
2023/05/28 05:57:27;;;;;;;;;;;18.50;67.70;;;;;;5041500;28;868;-70
2023/05/28 05:59:53;;;;;;;;;;;18.40;68.40;;;;;;5039634;28;1046;-70
2023/05/28 06:02:18;;;;;;;;;;;18.40;67.60;;;;;;5040434;28;1338;-69
2023/05/28 06:04:44;;;;;;;;;;;18.50;67.70;;;;;;5043263;28;950;-69
2023/05/28 06:07:10;;;;;;;;;;;18.50;67.70;;;;;;5039366;28;1204;-69
2023/05/28 06:09:36;;;;;;;;;;;18.50;67.70;;;;;;5037794;28;748;-69
2023/05/28 06:12:01;;;;;;;;;;;18.50;67.70;;;;;;5039756;28;1906;-69
2023/05/28 06:14:27;;;;;;;;;;;18.40;67.60;;;;;;5039858;28;863;-69
2023/05/28 06:16:53;;;;;;;;;;;18.50;67.70;;;;;;5036513;28;928;-71
2023/05/28 06:19:18;;;;;;;;;;;18.50;67.40;;;;;;5037640;28;855;-71
2023/05/28 06:21:44;;;;;;;;;;;18.50;67.30;;;;;;5040356;28;1734;-67
2023/05/28 06:24:09;;;;;;;;;;;18.50;67.00;;;;;;5038431;28;1713;-71
2023/05/28 06:26:35;;;;;;;;;;;18.50;66.90;;;;;;5042890;28;1390;-67
2023/05/28 06:29:00;;;;;;;;;;;18.50;66.70;;;;;;5031074;28;4016;-68
2023/05/28 06:31:26;;;;;;;;;;;18.50;66.50;;;;;;5029336;28;4487;-69
2023/05/28 06:33:51;;;;;;;;;;;18.50;66.40;;;;;;5036949;28;1283;-70
2023/05/28 06:36:17;;;;;;;;;;;18.50;66.40;;;;;;5037638;28;1018;-69
2023/05/28 06:38:43;;;;;;;;;;;18.50;66.30;;;;;;5040949;28;892;-70
2023/05/28 06:41:08;;;;;;;;;;;18.50;66.00;;;;;;5040917;28;1278;-72
2023/05/28 06:43:34;;;;;;;;;;;18.50;65.60;;;;;;5043452;28;1330;-73
2023/05/28 06:46:00;;;;;;;;;;;18.50;65.60;;;;;;5038831;28;1258;-73
2023/05/28 06:48:25;;;;;;;;;;;18.50;65.70;;;;;;5027057;28;4037;-74
2023/05/28 06:50:51;;;;;;;;;;;18.50;65.70;;;;;;5009500;28;3865;-68
2023/05/28 06:53:16;;;;;;;;;;;18.50;66.50;;;;;;5037042;28;4286;-67
2023/05/28 06:55:42;;;;;;;;;;;18.50;65.60;;;;;;5020663;28;1066;-67
2023/05/28 06:58:07;;;;;;;;;;;18.50;65.70;;;;;;5036820;28;836;-69
2023/05/28 07:00:32;;;;;;;;;;;18.50;65.60;;;;;;5039438;28;2114;-70
2023/05/28 07:02:58;;;;;;;;;;;18.50;65.50;;;;;;5033958;28;2150;-69
2023/05/28 07:05:23;;;;;;;;;;;18.50;65.30;;;;;;5039276;28;1265;-68
2023/05/28 07:07:49;;;;;;;;;;;18.50;65.20;;;;;;5036590;28;1744;-70
2023/05/28 07:10:14;;;;;;;;;;;18.50;65.20;;;;;;5034609;28;4740;-70
2023/05/28 07:12:40;;;;;;;;;;;18.50;65.00;;;;;;5039192;28;1426;-70
2023/05/28 07:15:06;;;;;;;;;;;18.50;64.90;;;;;;5023321;28;1805;-69
2023/05/28 07:17:31;;;;;;;;;;;18.50;64.60;;;;;;5038251;28;822;-69
2023/05/28 07:19:57;;;;;;;;;;;18.50;64.20;;;;;;5040470;28;903;-70
2023/05/28 07:22:24;;;;;;;;;;;18.50;64.00;;;;;;5039883;28;1325;-69
2023/05/28 07:24:49;;;;;;;;;;;18.50;63.70;;;;;;5035479;28;1183;-69
2023/05/28 07:27:15;;;;;;;;;;;18.50;63.70;;;;;;5033876;28;1017;-69
2023/05/28 07:29:40;;;;;;;;;;;18.50;63.70;;;;;;5038596;28;896;-71
2023/05/28 07:32:06;;;;;;;;;;;18.50;63.20;;;;;;5038833;28;1930;-72
2023/05/28 07:34:31;;;;;;;;;;;18.50;63.00;;;;;;5042979;28;1351;-70
2023/05/28 07:36:57;;;;;;;;;;;18.50;62.80;;;;;;5038890;28;827;-72
2023/05/28 07:39:22;;;;;;;;;;;18.50;62.50;;;;;;5039665;28;770;-72
2023/05/28 07:41:48;;;;;;;;;;;18.50;62.50;;;;;;5038799;28;1225;-70
2023/05/28 07:44:15;;;;;;;;;;;18.50;62.40;;;;;;5043948;28;859;-71
2023/05/28 07:46:40;;;;;;;;;;;18.50;62.20;;;;;;5021698;28;816;-71
2023/05/28 07:49:06;;;;;;;;;;;18.50;62.00;;;;;;5021444;28;772;-72
2023/05/28 07:51:32;;;;;;;;;;;18.50;61.80;;;;;;5036900;28;1906;-70
2023/05/28 07:53:57;;;;;;;;;;;18.50;61.70;;;;;;5039100;28;1221;-70
2023/05/28 07:56:23;;;;;;;;;;;18.60;61.70;;;;;;5043382;28;1018;-72
2023/05/28 07:58:48;;;;;;;;;;;18.60;61.60;;;;;;5024550;28;874;-71
2023/05/28 08:01:14;;;;;;;;;;;18.50;61.40;;;;;;5041936;28;785;-70
2023/05/28 08:03:39;;;;;;;;;;;18.60;61.70;;;;;;5036284;28;1403;-70
2023/05/28 08:06:06;;;;;;;;;;;18.60;61.60;;;;;;5039357;28;1007;-69
2023/05/28 08:08:31;;;;;;;;;;;18.60;61.40;;;;;;5037030;28;824;-72
2023/05/28 08:10:57;;;;;;;;;;;18.60;61.60;;;;;;5035941;28;2017;-71
2023/05/28 08:13:23;;;;;;;;;;;18.60;61.10;;;;;;5020981;28;1251;-71
2023/05/28 08:15:48;;;;;;;;;;;18.60;61.40;;;;;;5036122;28;833;-69
2023/05/28 08:18:14;;;;;;;;;;;18.60;61.20;;;;;;5037963;28;808;-69
2023/05/28 08:20:39;;;;;;;;;;;18.60;61.10;;;;;;5039270;28;834;-69
2023/05/28 08:23:05;;;;;;;;;;;18.60;61.20;;;;;;5041079;28;1338;-69
2023/05/28 08:25:31;;;;;;;;;;;18.60;61.10;;;;;;5038296;28;840;-68
2023/05/28 08:27:57;;;;;;;;;;;18.60;60.70;;;;;;5042566;28;1039;-68
2023/05/28 08:30:22;;;;;;;;;;;18.60;60.70;;;;;;5037913;28;1949;-71
2023/05/28 08:32:48;;;;;;;;;;;18.60;60.70;;;;;;5038373;28;1369;-69
2023/05/28 08:35:13;;;;;;;;;;;18.60;60.50;;;;;;5035217;28;1450;-69
2023/05/28 08:37:39;;;;;;;;;;;18.60;60.60;;;;;;5035533;28;1084;-70
2023/05/28 08:40:08;;;;;;;;;;;18.60;60.30;;;;;;5033388;28;805;-70
2023/05/28 08:42:34;;;;;;;;;;;18.60;60.40;;;;;;5032479;28;1283;-69
2023/05/28 08:44:59;;;;;;;;;;;18.60;60.20;;;;;;5036266;28;2031;-70
2023/05/28 08:47:25;;;;;;;;;;;18.60;60.20;;;;;;5036138;28;1248;-71
2023/05/28 08:49:51;;;;;;;;;;;18.60;60.30;;;;;;5021894;28;1275;-71
2023/05/28 08:52:17;;;;;;;;;;;18.60;59.90;;;;;;5004970;28;1899;-71
2023/05/28 08:54:43;;;;;;;;;;;18.60;59.80;;;;;;5038890;28;1166;-70
2023/05/28 08:57:09;;;;;;;;;;;18.60;59.70;;;;;;5035627;28;936;-71
2023/05/28 08:59:35;;;;;;;;;;;18.60;59.50;;;;;;5037664;28;1171;-70
2023/05/28 09:02:02;;;;;;;;;;;18.60;59.40;;;;;;5038591;28;1240;-70
2023/05/28 09:04:27;;;;;;;;;;;18.70;59.50;;;;;;5038003;28;1327;-71
2023/05/28 09:06:53;;;;;;;;;;;18.60;59.00;;;;;;5036081;28;840;-68
2023/05/28 09:09:19;;;;;;;;;;;18.60;59.00;;;;;;5036168;28;872;-69
2023/05/28 09:11:45;;;;;;;;;;;18.60;59.10;;;;;;5035292;28;1894;-70
2023/05/28 09:14:11;;;;;;;;;;;18.70;58.90;;;;;;5037870;28;856;-71
2023/05/28 09:16:39;;;;;;;;;;;18.70;58.70;;;;;;5018646;28;868;-69
2023/05/28 09:19:05;;;;;;;;;;;18.60;58.80;;;;;;5019635;28;900;-71
2023/05/28 09:21:31;;;;;;;;;;;18.70;58.80;;;;;;5036957;28;800;-71
2023/05/28 09:23:58;;;;;;;;;;;18.70;58.80;;;;;;5038176;28;1309;-71
2023/05/28 09:26:27;;;;;;;;;;;18.70;58.80;;;;;;5036538;28;1075;-70
2023/05/28 09:28:52;;;;;;;;;;;18.70;58.80;;;;;;5020254;28;891;-67
2023/05/28 09:31:18;;;;;;;;;;;18.70;58.80;;;;;;5038184;28;1969;-69
2023/05/28 09:33:47;;;;;;;;;;;18.70;58.80;;;;;;5023452;28;1566;-69
2023/05/28 09:36:15;;;;;;;;;;;18.70;58.60;;;;;;5020760;28;923;-69
2023/05/28 09:38:41;;;;;;;;;;;18.70;58.40;;;;;;5020390;28;1004;-68
2023/05/28 09:41:22;;;;;;;;;;;18.70;58.60;;;;;;5035846;28;867;-69
2023/05/28 09:43:58;;;;;;;;;;;18.70;58.30;;;;;;5017955;28;1355;-69
2023/05/28 09:46:33;;;;;;;;;;;18.70;58.40;;;;;;5019200;28;1000;-67
2023/05/28 09:48:59;;;;;;;;;;;18.70;58.20;;;;;;5040438;28;874;-67
2023/05/28 09:51:26;;;;;;;;;;;18.70;58.20;;;;;;5037128;28;1919;-67
2023/05/28 09:53:55;;;;;;;;;;;18.70;58.20;;;;;;5036323;28;1288;-68
2023/05/28 09:56:21;;;;;;;;;;;18.70;58.20;;;;;;5035381;28;1178;-70
2023/05/28 09:58:46;;;;;;;;;;;18.70;58.10;;;;;;5020949;28;2123;-71
2023/05/28 10:01:13;;;;;;;;;;;18.70;58.50;;;;;;5019923;28;1278;-70
2023/05/28 10:03:42;;;;;;;;;;;18.70;58.30;;;;;;5016049;28;1381;-71
2023/05/28 10:06:11;;;;;;;;;;;18.70;58.40;;;;;;5017796;28;1257;-70
2023/05/28 10:08:37;;;;;;;;;;;18.70;58.60;;;;;;5037277;28;871;-71
2023/05/28 10:11:03;;;;;;;;;;;18.70;58.50;;;;;;5036956;28;1902;-70
2023/05/28 10:13:28;;;;;;;;;;;18.70;58.60;;;;;;5023234;28;1355;-70
2023/05/28 10:15:53;;;;;;;;;;;18.70;58.70;;;;;;5040799;28;1009;-71
2023/05/28 10:18:19;;;;;;;;;;;18.70;58.80;;;;;;5037377;28;950;-70
2023/05/28 10:20:45;;;;;;;;;;;18.70;58.70;;;;;;5019658;28;852;-71
2023/05/28 10:23:10;;;;;;;;;;;18.70;59.20;;;;;;5022122;28;1251;-71
2023/05/28 10:25:36;;;;;;;;;;;18.70;58.60;;;;;;5014957;28;899;-71
2023/05/28 10:28:05;;;;;;;;;;;18.70;58.60;;;;;;5019825;28;1600;-71
2023/05/28 10:30:37;;;;;;;;;;;18.70;58.60;;;;;;5019007;28;1903;-71
2023/05/28 10:33:03;;;;;;;;;;;18.70;58.70;;;;;;5036156;28;1336;-70
2023/05/28 10:35:28;;;;;;;;;;;18.70;58.70;;;;;;5019993;28;1393;-70
2023/05/28 10:38:06;;;;;;;;;;;18.70;58.70;;;;;;5037437;28;899;-69
2023/05/28 10:40:33;;;;;;;;;;;18.70;58.80;;;;;;5036001;28;817;-69
2023/05/28 10:42:58;;;;;;;;;;;18.70;58.70;;;;;;5022343;28;1209;-69
2023/05/28 10:45:36;;;;;;;;;;;18.70;58.80;;;;;;5042182;28;924;-70
2023/05/28 10:48:02;;;;;;;;;;;18.70;58.60;;;;;;5019934;28;833;-70
2023/05/28 10:50:27;;;;;;;;;;;18.70;58.60;;;;;;5041904;28;1955;-70
2023/05/28 10:53:06;;;;;;;;;;;18.70;58.50;;;;;;5022361;28;1351;-70
2023/05/28 10:55:50;;;;;;;;;;;18.70;58.50;;;;;;5039210;28;799;-71
2023/05/28 10:58:36;;;;;;;;;;;18.70;58.40;;;;;;5040268;28;780;-70
2023/05/28 11:01:10;;;;;;;;;;;18.70;58.50;;;;;;5037685;28;1204;-71
2023/05/28 11:03:42;;;;;;;;;;;18.70;58.50;;;;;;5040773;28;1271;-69
2023/05/28 11:06:08;;;;;;;;;;;18.70;58.40;;;;;;5039184;28;828;-71
2023/05/28 11:08:46;;;;;;;;;;;18.70;58.40;;;;;;5041732;28;1094;-71
2023/05/28 11:11:12;;;;;;;;;;;18.70;58.30;;;;;;5037033;28;1930;-71
2023/05/28 11:13:38;;;;;;;;;;;18.70;58.20;;;;;;5039891;28;1343;-71
2023/05/28 11:16:07;;;;;;;;;;;18.70;58.10;;;;;;5022663;28;1383;-71
2023/05/28 11:18:32;;;;;;;;;;;18.70;58.00;;;;;;5021626;28;871;-71
2023/05/28 11:21:02;;;;;;;;;;;18.70;58.00;;;;;;5034832;28;2132;-70
2023/05/28 11:23:27;;;;;;;;;;;18.70;58.00;;;;;;5037521;28;1369;-72
2023/05/28 11:25:52;;;;;;;;;;;18.80;58.10;;;;;;5037772;28;1333;-71
2023/05/28 11:28:18;;;;;;;;;;;18.70;57.90;;;;;;5039335;28;916;-71
2023/05/28 11:30:43;;;;;;;;;;;18.80;57.80;;;;;;5037129;28;1906;-71
2023/05/28 11:33:09;;;;;;;;;;;18.70;57.70;;;;;;5024466;28;1377;-71
2023/05/28 11:35:35;;;;;;;;;;;18.80;57.60;;;;;;5034640;28;1289;-71
2023/05/28 11:38:00;;;;;;;;;;;18.80;57.60;;;;;;5038628;28;863;-70
2023/05/28 11:40:32;;;;;;;;;;;18.80;57.60;;;;;;5022384;28;837;-71
2023/05/28 11:42:58;;;;;;;;;;;18.80;57.50;;;;;;5020705;28;1368;-71
2023/05/28 11:45:24;;;;;;;;;;;18.80;57.60;;;;;;5038004;28;928;-71
2023/05/28 11:47:49;;;;;;;;;;;18.80;57.50;;;;;;5040028;28;828;-71
2023/05/28 11:50:15;;;;;;;;;;;18.80;57.60;;;;;;5020826;28;1894;-70
2023/05/28 11:52:40;;;;;;;;;;;18.80;57.40;;;;;;5018557;28;1943;-70
2023/05/28 11:55:06;;;;;;;;;;;18.80;57.30;;;;;;5038403;28;1173;-71
2023/05/28 11:57:33;;;;;;;;;;;18.80;57.10;;;;;;5020299;28;1324;-70
2023/05/28 12:00:15;;;;;;;;;;;18.80;57.30;;;;;;5037819;28;1264;-71
2023/05/28 12:02:46;;;;;;;;;;;18.80;57.30;;;;;;5038174;28;1382;-69
2023/05/28 12:05:12;;;;;;;;;;;18.80;57.10;;;;;;5021833;28;815;-70
2023/05/28 12:07:37;;;;;;;;;;;18.80;57.20;;;;;;5037404;28;1848;-70
2023/05/28 12:10:04;;;;;;;;;;;18.80;57.10;;;;;;5019196;28;1999;-72
2023/05/28 12:12:31;;;;;;;;;;;18.80;57.30;;;;;;5016492;28;2101;-73
2023/05/28 12:14:58;;;;;;;;;;;18.80;56.70;;;;;;5022063;28;1337;-72
2023/05/28 12:17:24;;;;;;;;;;;18.80;57.80;;;;;;5021580;28;1363;-72
2023/05/28 12:19:49;;;;;;;;;;;18.80;58.20;;;;;;5037555;28;935;-72
2023/05/28 12:22:18;;;;;;;;;;;18.70;58.20;;;;;;5038964;28;1203;-73
2023/05/28 12:24:51;;;;;;;;;;;18.70;58.40;;;;;;5039285;28;1431;-73
2023/05/28 12:27:17;;;;;;;;;;;18.70;58.60;;;;;;5018561;28;1350;-73
2023/05/28 12:29:43;;;;;;;;;;;18.70;58.80;;;;;;5038326;28;1278;-72
2023/05/28 12:32:08;;;;;;;;;;;18.70;58.80;;;;;;5022545;28;1971;-71
2023/05/28 12:34:33;;;;;;;;;;;18.70;58.80;;;;;;5034847;28;1390;-71
2023/05/28 12:36:59;;;;;;;;;;;18.70;58.90;;;;;;5034664;28;1328;-72
2023/05/28 12:39:24;;;;;;;;;;;18.60;59.00;;;;;;5037550;28;1401;-71
2023/05/28 12:41:50;;;;;;;;;;;18.60;59.20;;;;;;5037045;28;1379;-72
2023/05/28 12:44:16;;;;;;;;;;;18.60;59.20;;;;;;5035898;28;1445;-72
2023/05/28 12:46:41;;;;;;;;;;;18.60;59.30;;;;;;5039196;28;1495;-73
2023/05/28 12:49:07;;;;;;;;;;;18.60;59.40;;;;;;5041609;28;1410;-72
2023/05/28 12:51:32;;;;;;;;;;;18.60;59.50;;;;;;5031510;28;1955;-72
2023/05/28 12:53:59;;;;;;;;;;;18.60;59.60;;;;;;5037967;28;1300;-72
2023/05/28 12:56:26;;;;;;;;;;;18.60;59.70;;;;;;5036541;28;1378;-73
2023/05/28 12:58:51;;;;;;;;;;;18.60;59.80;;;;;;5018489;28;1326;-71
2023/05/28 13:01:17;;;;;;;;;;;18.60;59.80;;;;;;5019551;28;1282;-70
2023/05/28 13:03:43;;;;;;;;;;;18.60;59.80;;;;;;5037287;28;1401;-71
2023/05/28 13:06:08;;;;;;;;;;;18.60;59.90;;;;;;5038664;28;1471;-72
2023/05/28 13:08:34;;;;;;;;;;;18.60;60.00;;;;;;5036081;28;782;-74
2023/05/28 13:10:59;;;;;;;;;;;18.60;60.10;;;;;;5035598;28;1958;-73
2023/05/28 13:13:25;;;;;;;;;;;18.60;60.20;;;;;;5040366;28;1356;-73
2023/05/28 13:15:50;;;;;;;;;;;18.60;60.30;;;;;;5039611;28;888;-73
2023/05/28 13:18:16;;;;;;;;;;;18.60;60.40;;;;;;5040719;28;1050;-73
2023/05/28 13:20:41;;;;;;;;;;;18.60;60.40;;;;;;5040985;28;892;-73
2023/05/28 13:23:07;;;;;;;;;;;18.60;60.50;;;;;;5035117;28;1350;-73
2023/05/28 13:25:34;;;;;;;;;;;18.60;60.50;;;;;;5036972;28;856;-73
2023/05/28 13:27:59;;;;;;;;;;;18.60;60.70;;;;;;5032319;28;1363;-73
2023/05/28 13:30:25;;;;;;;;;;;18.60;60.80;;;;;;5038982;28;1959;-73
2023/05/28 13:32:50;;;;;;;;;;;18.60;60.80;;;;;;5035741;28;1273;-73
2023/05/28 13:35:16;;;;;;;;;;;18.60;60.90;;;;;;5034725;28;1018;-73
2023/05/28 13:37:42;;;;;;;;;;;18.60;61.00;;;;;;5037470;28;845;-73
2023/05/28 13:40:10;;;;;;;;;;;18.60;61.00;;;;;;5039957;28;922;-73
2023/05/28 13:42:36;;;;;;;;;;;18.60;61.10;;;;;;5033441;28;1291;-73
2023/05/28 13:45:01;;;;;;;;;;;18.60;61.20;;;;;;5036019;28;924;-75
2023/05/28 13:47:27;;;;;;;;;;;18.60;61.20;;;;;;5024989;28;977;-73
2023/05/28 13:49:52;;;;;;;;;;;18.60;61.30;;;;;;5035609;28;944;-72
2023/05/28 13:52:18;;;;;;;;;;;18.60;61.40;;;;;;5034557;28;1946;-73
2023/05/28 13:54:43;;;;;;;;;;;18.60;61.40;;;;;;5018878;28;809;-73
2023/05/28 13:57:09;;;;;;;;;;;18.60;61.50;;;;;;5019457;28;1046;-73
2023/05/28 13:59:35;;;;;;;;;;;18.60;61.50;;;;;;5033549;28;792;-73
2023/05/28 14:02:00;;;;;;;;;;;18.60;61.60;;;;;;5037831;28;1287;-70
2023/05/28 14:04:26;;;;;;;;;;;18.60;61.60;;;;;;5039471;28;1639;-69
2023/05/28 14:06:51;;;;;;;;;;;18.50;61.60;;;;;;5037676;28;1286;-72
2023/05/28 14:09:17;;;;;;;;;;;18.60;61.70;;;;;;5035868;28;1258;-72
2023/05/28 14:11:42;;;;;;;;;;;18.60;61.70;;;;;;5030395;28;1898;-70
2023/05/28 14:14:08;;;;;;;;;;;18.60;61.80;;;;;;5035785;28;1430;-70
2023/05/28 14:16:33;;;;;;;;;;;18.60;61.80;;;;;;5039486;28;1337;-71
2023/05/28 14:18:59;;;;;;;;;;;18.60;61.80;;;;;;5022763;28;1342;-71
2023/05/28 14:21:24;;;;;;;;;;;18.60;61.90;;;;;;5037823;28;1572;-72
2023/05/28 14:23:50;;;;;;;;;;;18.60;61.90;;;;;;5040377;28;1314;-74
2023/05/28 14:26:15;;;;;;;;;;;18.60;62.00;;;;;;5037276;28;1430;-74
2023/05/28 14:28:41;;;;;;;;;;;18.60;62.00;;;;;;5040927;28;1372;-73
2023/05/28 14:31:06;;;;;;;;;;;18.60;62.00;;;;;;5039928;28;1955;-71